sensor_id;sensor_type;location;lat;lon;timestamp;P1;durP1;ratioP1;P2;durP2;ratioP2
24644;SDS011;12780;45.502;9.146;2023-07-13T00:00:19;7.60;;;4.25;;
24644;SDS011;12780;45.502;9.146;2023-07-13T00:02:45;13.20;;;3.92;;
24644;SDS011;12780;45.502;9.146;2023-07-13T00:05:11;9.93;;;4.50;;
24644;SDS011;12780;45.502;9.146;2023-07-13T00:07:37;9.75;;;4.63;;
24644;SDS011;12780;45.502;9.146;2023-07-13T00:10:03;10.32;;;4.38;;
24644;SDS011;12780;45.502;9.146;2023-07-13T00:12:31;11.80;;;4.70;;
24644;SDS011;12780;45.502;9.146;2023-07-13T00:14:59;13.05;;;4.68;;
24644;SDS011;12780;45.502;9.146;2023-07-13T00:17:25;9.10;;;4.75;;
24644;SDS011;12780;45.502;9.146;2023-07-13T00:19:51;8.90;;;4.43;;
24644;SDS011;12780;45.502;9.146;2023-07-13T00:22:18;9.27;;;4.65;;
24644;SDS011;12780;45.502;9.146;2023-07-13T00:24:44;8.85;;;4.32;;
24644;SDS011;12780;45.502;9.146;2023-07-13T00:27:11;11.05;;;4.10;;
24644;SDS011;12780;45.502;9.146;2023-07-13T00:29:37;12.82;;;4.70;;
24644;SDS011;12780;45.502;9.146;2023-07-13T00:32:03;14.65;;;4.80;;
24644;SDS011;12780;45.502;9.146;2023-07-13T00:34:30;11.68;;;4.40;;
24644;SDS011;12780;45.502;9.146;2023-07-13T00:36:56;9.65;;;4.18;;
24644;SDS011;12780;45.502;9.146;2023-07-13T00:39:22;13.73;;;4.35;;
24644;SDS011;12780;45.502;9.146;2023-07-13T00:41:49;12.55;;;4.75;;
24644;SDS011;12780;45.502;9.146;2023-07-13T00:44:16;8.15;;;4.00;;
24644;SDS011;12780;45.502;9.146;2023-07-13T00:46:42;10.52;;;4.47;;
24644;SDS011;12780;45.502;9.146;2023-07-13T00:49:10;13.07;;;4.53;;
24644;SDS011;12780;45.502;9.146;2023-07-13T00:51:41;14.10;;;4.63;;
24644;SDS011;12780;45.502;9.146;2023-07-13T00:54:09;10.57;;;4.43;;
24644;SDS011;12780;45.502;9.146;2023-07-13T00:56:37;8.55;;;4.03;;
24644;SDS011;12780;45.502;9.146;2023-07-13T00:59:03;8.35;;;4.28;;
24644;SDS011;12780;45.502;9.146;2023-07-13T01:01:30;12.55;;;4.55;;
24644;SDS011;12780;45.502;9.146;2023-07-13T01:03:56;9.98;;;4.72;;
24644;SDS011;12780;45.502;9.146;2023-07-13T01:06:22;10.55;;;5.15;;
24644;SDS011;12780;45.502;9.146;2023-07-13T01:08:48;11.07;;;4.93;;
24644;SDS011;12780;45.502;9.146;2023-07-13T01:11:18;11.88;;;5.03;;
24644;SDS011;12780;45.502;9.146;2023-07-13T01:13:45;11.70;;;5.40;;
24644;SDS011;12780;45.502;9.146;2023-07-13T01:16:15;8.23;;;4.95;;
24644;SDS011;12780;45.502;9.146;2023-07-13T01:18:41;10.45;;;5.57;;
24644;SDS011;12780;45.502;9.146;2023-07-13T01:21:07;13.43;;;5.20;;
24644;SDS011;12780;45.502;9.146;2023-07-13T01:23:34;8.27;;;5.20;;
24644;SDS011;12780;45.502;9.146;2023-07-13T01:26:00;13.57;;;4.90;;
24644;SDS011;12780;45.502;9.146;2023-07-13T01:28:26;10.27;;;5.05;;
24644;SDS011;12780;45.502;9.146;2023-07-13T01:30:53;14.30;;;5.00;;
24644;SDS011;12780;45.502;9.146;2023-07-13T01:33:19;16.25;;;5.38;;
24644;SDS011;12780;45.502;9.146;2023-07-13T01:35:46;10.15;;;4.30;;
24644;SDS011;12780;45.502;9.146;2023-07-13T01:38:13;8.60;;;4.78;;
24644;SDS011;12780;45.502;9.146;2023-07-13T01:40:40;12.40;;;5.05;;
24644;SDS011;12780;45.502;9.146;2023-07-13T01:43:06;8.95;;;4.90;;
24644;SDS011;12780;45.502;9.146;2023-07-13T01:45:32;14.13;;;4.82;;
24644;SDS011;12780;45.502;9.146;2023-07-13T01:47:58;7.90;;;4.80;;
24644;SDS011;12780;45.502;9.146;2023-07-13T01:50:24;9.73;;;4.70;;
24644;SDS011;12780;45.502;9.146;2023-07-13T01:52:50;11.07;;;4.55;;
24644;SDS011;12780;45.502;9.146;2023-07-13T01:55:17;10.07;;;5.32;;
24644;SDS011;12780;45.502;9.146;2023-07-13T01:57:43;10.35;;;4.70;;
24644;SDS011;12780;45.502;9.146;2023-07-13T02:00:09;11.07;;;4.97;;
24644;SDS011;12780;45.502;9.146;2023-07-13T02:02:35;10.52;;;4.72;;
24644;SDS011;12780;45.502;9.146;2023-07-13T02:05:02;11.25;;;4.50;;
24644;SDS011;12780;45.502;9.146;2023-07-13T02:07:28;10.18;;;4.82;;
24644;SDS011;12780;45.502;9.146;2023-07-13T02:09:54;10.43;;;4.25;;
24644;SDS011;12780;45.502;9.146;2023-07-13T02:12:20;10.63;;;4.60;;
24644;SDS011;12780;45.502;9.146;2023-07-13T02:14:46;10.05;;;4.90;;
24644;SDS011;12780;45.502;9.146;2023-07-13T02:17:12;9.32;;;4.38;;
24644;SDS011;12780;45.502;9.146;2023-07-13T02:19:38;11.48;;;4.60;;
24644;SDS011;12780;45.502;9.146;2023-07-13T02:22:05;9.70;;;4.80;;
24644;SDS011;12780;45.502;9.146;2023-07-13T02:24:31;7.35;;;3.90;;
24644;SDS011;12780;45.502;9.146;2023-07-13T02:26:57;12.85;;;4.40;;
24644;SDS011;12780;45.502;9.146;2023-07-13T02:29:23;11.13;;;5.00;;
24644;SDS011;12780;45.502;9.146;2023-07-13T02:31:49;10.13;;;4.47;;
24644;SDS011;12780;45.502;9.146;2023-07-13T02:34:15;10.50;;;4.50;;
24644;SDS011;12780;45.502;9.146;2023-07-13T02:36:41;11.10;;;4.38;;
24644;SDS011;12780;45.502;9.146;2023-07-13T02:39:07;9.30;;;4.32;;
24644;SDS011;12780;45.502;9.146;2023-07-13T02:41:34;12.55;;;4.63;;
24644;SDS011;12780;45.502;9.146;2023-07-13T02:44:01;9.05;;;5.28;;
24644;SDS011;12780;45.502;9.146;2023-07-13T02:46:35;11.27;;;5.00;;
24644;SDS011;12780;45.502;9.146;2023-07-13T02:49:02;9.13;;;4.70;;
24644;SDS011;12780;45.502;9.146;2023-07-13T02:51:28;12.27;;;5.30;;
24644;SDS011;12780;45.502;9.146;2023-07-13T02:53:54;9.85;;;4.78;;
24644;SDS011;12780;45.502;9.146;2023-07-13T02:56:23;10.57;;;5.30;;
24644;SDS011;12780;45.502;9.146;2023-07-13T02:58:49;11.50;;;4.75;;
24644;SDS011;12780;45.502;9.146;2023-07-13T03:01:15;12.98;;;4.70;;
24644;SDS011;12780;45.502;9.146;2023-07-13T03:03:46;8.93;;;5.00;;
24644;SDS011;12780;45.502;9.146;2023-07-13T03:06:13;13.65;;;4.68;;
24644;SDS011;12780;45.502;9.146;2023-07-13T03:08:39;8.35;;;4.93;;
24644;SDS011;12780;45.502;9.146;2023-07-13T03:11:07;7.38;;;4.22;;
24644;SDS011;12780;45.502;9.146;2023-07-13T03:13:33;7.05;;;4.72;;
24644;SDS011;12780;45.502;9.146;2023-07-13T03:15:59;13.55;;;5.38;;
24644;SDS011;12780;45.502;9.146;2023-07-13T03:18:26;12.15;;;5.20;;
24644;SDS011;12780;45.502;9.146;2023-07-13T03:20:53;10.10;;;4.75;;
24644;SDS011;12780;45.502;9.146;2023-07-13T03:23:19;11.75;;;5.10;;
24644;SDS011;12780;45.502;9.146;2023-07-13T03:25:46;11.15;;;5.20;;
24644;SDS011;12780;45.502;9.146;2023-07-13T03:28:13;10.60;;;5.35;;
24644;SDS011;12780;45.502;9.146;2023-07-13T03:30:39;10.85;;;4.95;;
24644;SDS011;12780;45.502;9.146;2023-07-13T03:33:05;12.10;;;5.57;;
24644;SDS011;12780;45.502;9.146;2023-07-13T03:35:31;10.75;;;5.50;;
24644;SDS011;12780;45.502;9.146;2023-07-13T03:37:58;10.35;;;4.82;;
24644;SDS011;12780;45.502;9.146;2023-07-13T03:40:24;9.43;;;5.32;;
24644;SDS011;12780;45.502;9.146;2023-07-13T03:42:51;11.55;;;5.90;;
24644;SDS011;12780;45.502;9.146;2023-07-13T03:45:17;12.43;;;5.93;;
24644;SDS011;12780;45.502;9.146;2023-07-13T03:47:43;10.05;;;4.90;;
24644;SDS011;12780;45.502;9.146;2023-07-13T03:50:09;9.02;;;5.00;;
24644;SDS011;12780;45.502;9.146;2023-07-13T03:52:35;11.60;;;5.35;;
24644;SDS011;12780;45.502;9.146;2023-07-13T03:55:01;11.05;;;5.43;;
24644;SDS011;12780;45.502;9.146;2023-07-13T03:57:27;14.18;;;5.10;;
24644;SDS011;12780;45.502;9.146;2023-07-13T03:59:53;11.38;;;4.85;;
24644;SDS011;12780;45.502;9.146;2023-07-13T04:02:19;10.60;;;5.18;;
24644;SDS011;12780;45.502;9.146;2023-07-13T04:04:46;10.45;;;4.78;;
24644;SDS011;12780;45.502;9.146;2023-07-13T04:07:12;13.90;;;5.07;;
24644;SDS011;12780;45.502;9.146;2023-07-13T04:09:38;9.35;;;5.00;;
24644;SDS011;12780;45.502;9.146;2023-07-13T04:12:04;12.57;;;5.20;;
24644;SDS011;12780;45.502;9.146;2023-07-13T04:14:30;11.02;;;5.65;;
24644;SDS011;12780;45.502;9.146;2023-07-13T04:16:56;9.70;;;5.00;;
24644;SDS011;12780;45.502;9.146;2023-07-13T04:19:22;14.20;;;6.00;;
24644;SDS011;12780;45.502;9.146;2023-07-13T04:21:48;10.88;;;5.45;;
24644;SDS011;12780;45.502;9.146;2023-07-13T04:24:14;10.20;;;5.63;;
24644;SDS011;12780;45.502;9.146;2023-07-13T04:26:40;8.55;;;5.28;;
24644;SDS011;12780;45.502;9.146;2023-07-13T04:29:07;7.53;;;4.93;;
24644;SDS011;12780;45.502;9.146;2023-07-13T04:31:33;15.57;;;5.93;;
24644;SDS011;12780;45.502;9.146;2023-07-13T04:33:59;10.90;;;5.50;;
24644;SDS011;12780;45.502;9.146;2023-07-13T04:36:25;10.73;;;5.55;;
24644;SDS011;12780;45.502;9.146;2023-07-13T04:38:54;14.70;;;5.53;;
24644;SDS011;12780;45.502;9.146;2023-07-13T04:41:20;12.35;;;5.72;;
24644;SDS011;12780;45.502;9.146;2023-07-13T04:43:47;8.85;;;5.20;;
24644;SDS011;12780;45.502;9.146;2023-07-13T04:46:14;11.15;;;5.30;;
24644;SDS011;12780;45.502;9.146;2023-07-13T04:48:40;12.32;;;5.32;;
24644;SDS011;12780;45.502;9.146;2023-07-13T04:51:06;10.15;;;5.40;;
24644;SDS011;12780;45.502;9.146;2023-07-13T04:53:33;9.73;;;5.40;;
24644;SDS011;12780;45.502;9.146;2023-07-13T04:55:59;8.13;;;5.50;;
24644;SDS011;12780;45.502;9.146;2023-07-13T04:58:25;11.65;;;5.50;;
24644;SDS011;12780;45.502;9.146;2023-07-13T05:00:52;10.77;;;4.85;;
24644;SDS011;12780;45.502;9.146;2023-07-13T05:03:19;11.63;;;5.15;;
24644;SDS011;12780;45.502;9.146;2023-07-13T05:05:54;14.68;;;6.05;;
24644;SDS011;12780;45.502;9.146;2023-07-13T05:08:20;15.90;;;5.90;;
24644;SDS011;12780;45.502;9.146;2023-07-13T05:10:46;12.43;;;6.30;;
24644;SDS011;12780;45.502;9.146;2023-07-13T05:13:12;11.15;;;6.15;;
24644;SDS011;12780;45.502;9.146;2023-07-13T05:15:38;10.38;;;5.68;;
24644;SDS011;12780;45.502;9.146;2023-07-13T05:18:04;10.85;;;5.53;;
24644;SDS011;12780;45.502;9.146;2023-07-13T05:20:30;11.07;;;5.60;;
24644;SDS011;12780;45.502;9.146;2023-07-13T05:22:56;9.73;;;5.20;;
24644;SDS011;12780;45.502;9.146;2023-07-13T05:25:22;9.40;;;5.50;;
24644;SDS011;12780;45.502;9.146;2023-07-13T05:27:49;13.45;;;6.47;;
24644;SDS011;12780;45.502;9.146;2023-07-13T05:30:15;10.65;;;6.22;;
24644;SDS011;12780;45.502;9.146;2023-07-13T05:32:41;14.55;;;6.65;;
24644;SDS011;12780;45.502;9.146;2023-07-13T05:35:07;11.90;;;6.50;;
24644;SDS011;12780;45.502;9.146;2023-07-13T05:37:33;18.13;;;7.22;;
24644;SDS011;12780;45.502;9.146;2023-07-13T05:39:59;14.57;;;7.85;;
24644;SDS011;12780;45.502;9.146;2023-07-13T05:42:25;16.98;;;7.47;;
24644;SDS011;12780;45.502;9.146;2023-07-13T05:44:51;17.75;;;7.75;;
24644;SDS011;12780;45.502;9.146;2023-07-13T05:47:17;17.02;;;7.05;;
24644;SDS011;12780;45.502;9.146;2023-07-13T05:49:43;16.88;;;8.15;;
24644;SDS011;12780;45.502;9.146;2023-07-13T05:52:09;19.88;;;8.50;;
24644;SDS011;12780;45.502;9.146;2023-07-13T05:54:35;15.18;;;8.82;;
24644;SDS011;12780;45.502;9.146;2023-07-13T05:57:01;15.90;;;9.15;;
24644;SDS011;12780;45.502;9.146;2023-07-13T05:59:27;15.27;;;8.25;;
24644;SDS011;12780;45.502;9.146;2023-07-13T06:01:53;19.35;;;7.00;;
24644;SDS011;12780;45.502;9.146;2023-07-13T06:04:19;20.75;;;6.90;;
24644;SDS011;12780;45.502;9.146;2023-07-13T06:06:45;14.43;;;6.80;;
24644;SDS011;12780;45.502;9.146;2023-07-13T06:09:12;17.95;;;6.57;;
24644;SDS011;12780;45.502;9.146;2023-07-13T06:11:38;19.38;;;6.97;;
24644;SDS011;12780;45.502;9.146;2023-07-13T06:14:04;14.07;;;6.85;;
24644;SDS011;12780;45.502;9.146;2023-07-13T06:16:30;17.35;;;6.35;;
24644;SDS011;12780;45.502;9.146;2023-07-13T06:18:56;10.95;;;7.03;;
24644;SDS011;12780;45.502;9.146;2023-07-13T06:21:22;13.52;;;7.00;;
24644;SDS011;12780;45.502;9.146;2023-07-13T06:23:50;18.27;;;7.25;;
24644;SDS011;12780;45.502;9.146;2023-07-13T06:26:17;15.43;;;7.45;;
24644;SDS011;12780;45.502;9.146;2023-07-13T06:28:43;13.63;;;6.80;;
24644;SDS011;12780;45.502;9.146;2023-07-13T06:31:10;16.58;;;6.93;;
24644;SDS011;12780;45.502;9.146;2023-07-13T06:33:37;18.48;;;6.72;;
24644;SDS011;12780;45.502;9.146;2023-07-13T06:36:04;13.25;;;5.60;;
24644;SDS011;12780;45.502;9.146;2023-07-13T06:38:30;10.02;;;5.05;;
24644;SDS011;12780;45.502;9.146;2023-07-13T06:40:56;10.00;;;5.07;;
24644;SDS011;12780;45.502;9.146;2023-07-13T06:43:22;11.35;;;5.30;;
24644;SDS011;12780;45.502;9.146;2023-07-13T06:45:50;14.20;;;5.47;;
24644;SDS011;12780;45.502;9.146;2023-07-13T06:48:16;17.10;;;5.93;;
24644;SDS011;12780;45.502;9.146;2023-07-13T06:50:43;16.02;;;5.95;;
24644;SDS011;12780;45.502;9.146;2023-07-13T06:53:09;11.88;;;5.60;;
24644;SDS011;12780;45.502;9.146;2023-07-13T06:55:35;12.52;;;5.80;;
24644;SDS011;12780;45.502;9.146;2023-07-13T06:58:01;12.98;;;6.10;;
24644;SDS011;12780;45.502;9.146;2023-07-13T07:00:27;12.77;;;6.20;;
24644;SDS011;12780;45.502;9.146;2023-07-13T07:02:54;13.93;;;6.10;;
24644;SDS011;12780;45.502;9.146;2023-07-13T07:05:20;15.05;;;5.90;;
24644;SDS011;12780;45.502;9.146;2023-07-13T07:07:47;16.50;;;5.72;;
24644;SDS011;12780;45.502;9.146;2023-07-13T07:10:13;10.32;;;4.82;;
24644;SDS011;12780;45.502;9.146;2023-07-13T07:12:39;13.77;;;5.10;;
24644;SDS011;12780;45.502;9.146;2023-07-13T07:15:05;9.45;;;4.22;;
24644;SDS011;12780;45.502;9.146;2023-07-13T07:17:31;10.60;;;4.07;;
24644;SDS011;12780;45.502;9.146;2023-07-13T07:19:57;11.00;;;3.97;;
24644;SDS011;12780;45.502;9.146;2023-07-13T07:22:23;8.40;;;3.90;;
24644;SDS011;12780;45.502;9.146;2023-07-13T07:24:52;9.45;;;4.07;;
24644;SDS011;12780;45.502;9.146;2023-07-13T07:27:18;12.15;;;3.75;;
24644;SDS011;12780;45.502;9.146;2023-07-13T07:29:44;10.27;;;3.85;;
24644;SDS011;12780;45.502;9.146;2023-07-13T07:32:10;8.15;;;3.20;;
24644;SDS011;12780;45.502;9.146;2023-07-13T07:34:36;8.68;;;3.42;;
24644;SDS011;12780;45.502;9.146;2023-07-13T07:37:02;13.10;;;3.20;;
24644;SDS011;12780;45.502;9.146;2023-07-13T07:39:28;7.15;;;3.00;;
24644;SDS011;12780;45.502;9.146;2023-07-13T07:41:54;10.10;;;2.80;;
24644;SDS011;12780;45.502;9.146;2023-07-13T07:44:20;8.25;;;2.95;;
24644;SDS011;12780;45.502;9.146;2023-07-13T07:46:47;8.20;;;2.40;;
24644;SDS011;12780;45.502;9.146;2023-07-13T07:49:13;10.30;;;2.65;;
24644;SDS011;12780;45.502;9.146;2023-07-13T07:51:39;11.52;;;3.00;;
24644;SDS011;12780;45.502;9.146;2023-07-13T07:54:05;9.23;;;3.10;;
24644;SDS011;12780;45.502;9.146;2023-07-13T07:56:32;10.27;;;2.60;;
24644;SDS011;12780;45.502;9.146;2023-07-13T07:58:58;13.20;;;3.00;;
24644;SDS011;12780;45.502;9.146;2023-07-13T08:01:24;11.60;;;2.65;;
24644;SDS011;12780;45.502;9.146;2023-07-13T08:03:50;10.48;;;2.80;;
24644;SDS011;12780;45.502;9.146;2023-07-13T08:06:16;8.70;;;3.00;;
24644;SDS011;12780;45.502;9.146;2023-07-13T08:08:44;10.55;;;2.80;;
24644;SDS011;12780;45.502;9.146;2023-07-13T08:11:10;6.05;;;2.67;;
24644;SDS011;12780;45.502;9.146;2023-07-13T08:13:37;6.30;;;3.25;;
24644;SDS011;12780;45.502;9.146;2023-07-13T08:16:06;10.80;;;2.83;;
24644;SDS011;12780;45.502;9.146;2023-07-13T08:18:32;7.45;;;2.60;;
24644;SDS011;12780;45.502;9.146;2023-07-13T08:21:02;5.30;;;2.60;;
24644;SDS011;12780;45.502;9.146;2023-07-13T08:23:28;6.50;;;2.70;;
24644;SDS011;12780;45.502;9.146;2023-07-13T08:25:55;8.10;;;2.67;;
24644;SDS011;12780;45.502;9.146;2023-07-13T08:28:22;12.65;;;2.70;;
24644;SDS011;12780;45.502;9.146;2023-07-13T08:30:49;15.68;;;2.80;;
24644;SDS011;12780;45.502;9.146;2023-07-13T08:33:16;15.25;;;3.55;;
24644;SDS011;12780;45.502;9.146;2023-07-13T08:35:42;10.13;;;2.83;;
24644;SDS011;12780;45.502;9.146;2023-07-13T08:38:11;8.18;;;2.97;;
24644;SDS011;12780;45.502;9.146;2023-07-13T08:40:37;6.28;;;2.75;;
24644;SDS011;12780;45.502;9.146;2023-07-13T08:43:04;11.45;;;3.20;;
24644;SDS011;12780;45.502;9.146;2023-07-13T08:48:28;8.73;;;2.95;;
24644;SDS011;12780;45.502;9.146;2023-07-13T08:51:00;7.68;;;2.67;;
24644;SDS011;12780;45.502;9.146;2023-07-13T08:53:33;4.65;;;2.42;;
24644;SDS011;12780;45.502;9.146;2023-07-13T08:58:26;7.78;;;2.60;;
24644;SDS011;12780;45.502;9.146;2023-07-13T09:03:23;6.50;;;2.47;;
24644;SDS011;12780;45.502;9.146;2023-07-13T09:05:55;8.48;;;2.90;;
24644;SDS011;12780;45.502;9.146;2023-07-13T09:08:30;4.63;;;2.28;;
24644;SDS011;12780;45.502;9.146;2023-07-13T09:11:00;9.90;;;2.88;;
24644;SDS011;12780;45.502;9.146;2023-07-13T09:16:19;8.65;;;3.60;;
24644;SDS011;12780;45.502;9.146;2023-07-13T09:18:47;9.38;;;3.85;;
24644;SDS011;12780;45.502;9.146;2023-07-13T09:21:33;12.52;;;6.18;;
24644;SDS011;12780;45.502;9.146;2023-07-13T09:24:03;14.63;;;6.40;;
24644;SDS011;12780;45.502;9.146;2023-07-13T09:26:30;10.35;;;4.43;;
24644;SDS011;12780;45.502;9.146;2023-07-13T09:29:04;8.93;;;4.18;;
24644;SDS011;12780;45.502;9.146;2023-07-13T09:31:33;9.32;;;3.50;;
24644;SDS011;12780;45.502;9.146;2023-07-13T09:34:00;6.13;;;3.22;;
24644;SDS011;12780;45.502;9.146;2023-07-13T09:36:30;13.60;;;3.13;;
24644;SDS011;12780;45.502;9.146;2023-07-13T09:39:02;8.10;;;3.38;;
24644;SDS011;12780;45.502;9.146;2023-07-13T09:41:33;7.57;;;2.83;;
24644;SDS011;12780;45.502;9.146;2023-07-13T09:44:13;8.55;;;2.75;;
24644;SDS011;12780;45.502;9.146;2023-07-13T09:46:43;7.40;;;3.40;;
24644;SDS011;12780;45.502;9.146;2023-07-13T09:49:10;11.05;;;4.07;;
24644;SDS011;12780;45.502;9.146;2023-07-13T09:51:45;8.70;;;3.83;;
24644;SDS011;12780;45.502;9.146;2023-07-13T09:54:18;14.85;;;4.65;;
24644;SDS011;12780;45.502;9.146;2023-07-13T09:56:45;10.18;;;4.00;;
24644;SDS011;12780;45.502;9.146;2023-07-13T09:59:21;6.63;;;3.30;;
24644;SDS011;12780;45.502;9.146;2023-07-13T10:01:49;9.57;;;3.75;;
24644;SDS011;12780;45.502;9.146;2023-07-13T10:04:17;15.77;;;4.30;;
24644;SDS011;12780;45.502;9.146;2023-07-13T10:06:44;15.32;;;4.05;;
24644;SDS011;12780;45.502;9.146;2023-07-13T10:09:13;7.13;;;3.80;;
24644;SDS011;12780;45.502;9.146;2023-07-13T10:11:40;10.32;;;3.70;;
24644;SDS011;12780;45.502;9.146;2023-07-13T10:14:11;8.93;;;3.30;;
24644;SDS011;12780;45.502;9.146;2023-07-13T10:16:38;7.53;;;3.35;;
24644;SDS011;12780;45.502;9.146;2023-07-13T10:19:18;6.25;;;3.40;;
24644;SDS011;12780;45.502;9.146;2023-07-13T10:21:53;7.15;;;3.42;;
24644;SDS011;12780;45.502;9.146;2023-07-13T10:24:30;10.95;;;4.13;;
24644;SDS011;12780;45.502;9.146;2023-07-13T10:29:50;8.80;;;3.90;;
24644;SDS011;12780;45.502;9.146;2023-07-13T10:32:17;6.43;;;3.40;;
24644;SDS011;12780;45.502;9.146;2023-07-13T10:34:45;6.93;;;3.13;;
24644;SDS011;12780;45.502;9.146;2023-07-13T10:37:22;6.82;;;3.22;;
24644;SDS011;12780;45.502;9.146;2023-07-13T10:39:50;8.43;;;3.15;;
24644;SDS011;12780;45.502;9.146;2023-07-13T10:42:20;7.28;;;3.22;;
24644;SDS011;12780;45.502;9.146;2023-07-13T10:47:16;7.32;;;2.90;;
24644;SDS011;12780;45.502;9.146;2023-07-13T10:49:53;10.27;;;3.60;;
24644;SDS011;12780;45.502;9.146;2023-07-13T10:55:05;8.90;;;3.40;;
24644;SDS011;12780;45.502;9.146;2023-07-13T10:57:31;11.63;;;3.22;;
24644;SDS011;12780;45.502;9.146;2023-07-13T11:02:36;5.50;;;3.00;;
24644;SDS011;12780;45.502;9.146;2023-07-13T11:08:13;9.70;;;3.45;;
24644;SDS011;12780;45.502;9.146;2023-07-13T11:15:59;6.65;;;2.97;;
24644;SDS011;12780;45.502;9.146;2023-07-13T11:18:25;10.50;;;3.45;;
24644;SDS011;12780;45.502;9.146;2023-07-13T11:20:51;9.60;;;3.30;;
24644;SDS011;12780;45.502;9.146;2023-07-13T11:23:19;7.07;;;3.10;;
24644;SDS011;12780;45.502;9.146;2023-07-13T11:25:45;6.63;;;3.22;;
24644;SDS011;12780;45.502;9.146;2023-07-13T11:30:38;10.25;;;3.35;;
24644;SDS011;12780;45.502;9.146;2023-07-13T11:35:41;9.07;;;3.80;;
24644;SDS011;12780;45.502;9.146;2023-07-13T11:38:28;11.55;;;3.65;;
24644;SDS011;12780;45.502;9.146;2023-07-13T11:40:56;9.27;;;3.60;;
24644;SDS011;12780;45.502;9.146;2023-07-13T11:43:22;10.15;;;3.17;;
24644;SDS011;12780;45.502;9.146;2023-07-13T11:45:48;9.43;;;3.58;;
24644;SDS011;12780;45.502;9.146;2023-07-13T11:48:21;7.55;;;3.33;;
24644;SDS011;12780;45.502;9.146;2023-07-13T11:51:06;10.85;;;3.63;;
24644;SDS011;12780;45.502;9.146;2023-07-13T11:53:39;11.68;;;3.95;;
24644;SDS011;12780;45.502;9.146;2023-07-13T11:56:06;10.38;;;4.18;;
24644;SDS011;12780;45.502;9.146;2023-07-13T11:58:32;9.40;;;3.50;;
24644;SDS011;12780;45.502;9.146;2023-07-13T12:00:59;8.27;;;3.20;;
24644;SDS011;12780;45.502;9.146;2023-07-13T12:03:29;10.18;;;3.17;;
24644;SDS011;12780;45.502;9.146;2023-07-13T12:06:02;11.25;;;3.00;;
24644;SDS011;12780;45.502;9.146;2023-07-13T12:08:30;11.27;;;5.07;;
24644;SDS011;12780;45.502;9.146;2023-07-13T12:11:00;11.65;;;3.97;;
24644;SDS011;12780;45.502;9.146;2023-07-13T12:13:27;8.35;;;3.33;;
24644;SDS011;12780;45.502;9.146;2023-07-13T12:15:54;7.53;;;3.15;;
24644;SDS011;12780;45.502;9.146;2023-07-13T12:18:22;5.18;;;2.88;;
24644;SDS011;12780;45.502;9.146;2023-07-13T12:20:50;8.90;;;3.60;;
24644;SDS011;12780;45.502;9.146;2023-07-13T12:23:29;9.15;;;3.88;;
24644;SDS011;12780;45.502;9.146;2023-07-13T12:25:57;9.63;;;3.45;;
24644;SDS011;12780;45.502;9.146;2023-07-13T12:30:59;13.65;;;5.00;;
24644;SDS011;12780;45.502;9.146;2023-07-13T12:33:27;11.18;;;3.40;;
24644;SDS011;12780;45.502;9.146;2023-07-13T12:35:54;12.45;;;4.40;;
24644;SDS011;12780;45.502;9.146;2023-07-13T12:38:20;10.23;;;4.80;;
24644;SDS011;12780;45.502;9.146;2023-07-13T12:40:48;12.82;;;4.63;;
24644;SDS011;12780;45.502;9.146;2023-07-13T12:43:15;15.57;;;5.57;;
24644;SDS011;12780;45.502;9.146;2023-07-13T12:48:41;14.48;;;5.05;;
24644;SDS011;12780;45.502;9.146;2023-07-13T12:51:12;9.32;;;4.35;;
24644;SDS011;12780;45.502;9.146;2023-07-13T12:53:40;10.63;;;4.80;;
24644;SDS011;12780;45.502;9.146;2023-07-13T12:56:08;11.05;;;5.43;;
24644;SDS011;12780;45.502;9.146;2023-07-13T12:58:36;13.32;;;4.90;;
24644;SDS011;12780;45.502;9.146;2023-07-13T13:01:03;10.43;;;4.68;;
24644;SDS011;12780;45.502;9.146;2023-07-13T13:03:40;11.15;;;4.47;;
24644;SDS011;12780;45.502;9.146;2023-07-13T13:08:47;8.48;;;4.10;;
24644;SDS011;12780;45.502;9.146;2023-07-13T13:11:20;12.38;;;4.40;;
24644;SDS011;12780;45.502;9.146;2023-07-13T13:13:48;10.93;;;4.43;;
24644;SDS011;12780;45.502;9.146;2023-07-13T13:16:19;9.88;;;4.35;;
24644;SDS011;12780;45.502;9.146;2023-07-13T13:18:45;13.23;;;4.57;;
24644;SDS011;12780;45.502;9.146;2023-07-13T13:21:11;9.30;;;4.80;;
24644;SDS011;12780;45.502;9.146;2023-07-13T13:23:37;8.10;;;4.30;;
24644;SDS011;12780;45.502;9.146;2023-07-13T13:26:07;12.20;;;5.10;;
24644;SDS011;12780;45.502;9.146;2023-07-13T13:28:34;14.93;;;4.80;;
24644;SDS011;12780;45.502;9.146;2023-07-13T13:31:00;8.65;;;4.82;;
24644;SDS011;12780;45.502;9.146;2023-07-13T13:33:26;10.48;;;4.75;;
24644;SDS011;12780;45.502;9.146;2023-07-13T13:35:52;16.02;;;4.75;;
24644;SDS011;12780;45.502;9.146;2023-07-13T13:38:24;18.83;;;4.28;;
24644;SDS011;12780;45.502;9.146;2023-07-13T13:40:50;9.60;;;4.10;;
24644;SDS011;12780;45.502;9.146;2023-07-13T13:43:17;13.07;;;4.22;;
24644;SDS011;12780;45.502;9.146;2023-07-13T13:45:44;14.48;;;4.55;;
24644;SDS011;12780;45.502;9.146;2023-07-13T13:48:14;15.15;;;4.93;;
24644;SDS011;12780;45.502;9.146;2023-07-13T13:50:40;15.15;;;3.75;;
24644;SDS011;12780;45.502;9.146;2023-07-13T13:53:09;11.48;;;4.10;;
24644;SDS011;12780;45.502;9.146;2023-07-13T13:55:35;13.45;;;4.22;;
24644;SDS011;12780;45.502;9.146;2023-07-13T13:58:01;16.23;;;4.55;;
24644;SDS011;12780;45.502;9.146;2023-07-13T14:00:28;14.38;;;4.68;;
24644;SDS011;12780;45.502;9.146;2023-07-13T14:02:55;11.30;;;4.07;;
24644;SDS011;12780;45.502;9.146;2023-07-13T14:05:23;12.82;;;4.40;;
24644;SDS011;12780;45.502;9.146;2023-07-13T14:07:51;13.80;;;4.70;;
24644;SDS011;12780;45.502;9.146;2023-07-13T14:10:17;11.82;;;4.60;;
24644;SDS011;12780;45.502;9.146;2023-07-13T14:12:45;11.65;;;4.70;;
24644;SDS011;12780;45.502;9.146;2023-07-13T14:15:13;15.18;;;5.13;;
24644;SDS011;12780;45.502;9.146;2023-07-13T14:17:43;10.73;;;4.18;;
24644;SDS011;12780;45.502;9.146;2023-07-13T14:20:12;17.38;;;5.00;;
24644;SDS011;12780;45.502;9.146;2023-07-13T14:22:40;11.20;;;4.10;;
24644;SDS011;12780;45.502;9.146;2023-07-13T14:25:10;14.32;;;5.07;;
24644;SDS011;12780;45.502;9.146;2023-07-13T14:27:37;12.20;;;5.03;;
24644;SDS011;12780;45.502;9.146;2023-07-13T14:30:07;10.25;;;4.65;;
24644;SDS011;12780;45.502;9.146;2023-07-13T14:32:37;17.73;;;4.88;;
24644;SDS011;12780;45.502;9.146;2023-07-13T14:35:03;16.00;;;4.93;;
24644;SDS011;12780;45.502;9.146;2023-07-13T14:37:29;15.50;;;4.97;;
24644;SDS011;12780;45.502;9.146;2023-07-13T14:39:55;9.80;;;4.97;;
24644;SDS011;12780;45.502;9.146;2023-07-13T14:42:21;16.65;;;5.78;;
24644;SDS011;12780;45.502;9.146;2023-07-13T14:44:47;10.88;;;4.68;;
24644;SDS011;12780;45.502;9.146;2023-07-13T14:47:14;8.77;;;4.38;;
24644;SDS011;12780;45.502;9.146;2023-07-13T14:49:41;11.32;;;4.88;;
24644;SDS011;12780;45.502;9.146;2023-07-13T14:54:38;23.13;;;5.32;;
24644;SDS011;12780;45.502;9.146;2023-07-13T14:57:12;15.68;;;5.05;;
24644;SDS011;12780;45.502;9.146;2023-07-13T14:59:38;11.80;;;4.82;;
24644;SDS011;12780;45.502;9.146;2023-07-13T15:04:50;10.77;;;4.85;;
24644;SDS011;12780;45.502;9.146;2023-07-13T15:07:16;11.65;;;5.13;;
24644;SDS011;12780;45.502;9.146;2023-07-13T15:09:44;15.55;;;5.22;;
24644;SDS011;12780;45.502;9.146;2023-07-13T15:12:10;13.48;;;5.10;;
24644;SDS011;12780;45.502;9.146;2023-07-13T15:14:36;15.13;;;4.50;;
24644;SDS011;12780;45.502;9.146;2023-07-13T15:17:02;10.38;;;4.55;;
24644;SDS011;12780;45.502;9.146;2023-07-13T15:19:28;12.02;;;4.53;;
24644;SDS011;12780;45.502;9.146;2023-07-13T15:21:55;10.45;;;4.45;;
24644;SDS011;12780;45.502;9.146;2023-07-13T15:24:22;12.50;;;4.85;;
24644;SDS011;12780;45.502;9.146;2023-07-13T15:26:48;13.10;;;4.40;;